sensor_id;sensor_type;location;lat;lon;timestamp;temperature;humidity
37530;DHT22;23374;52.758;6.872;2023-07-31T00:01:24;16.60;99.90
37530;DHT22;23374;52.758;6.872;2023-07-31T00:03:45;16.60;99.90
37530;DHT22;23374;52.758;6.872;2023-07-31T00:06:06;16.60;99.90
37530;DHT22;23374;52.758;6.872;2023-07-31T00:08:27;16.50;99.90
37530;DHT22;23374;52.758;6.872;2023-07-31T00:10:52;16.50;99.90
37530;DHT22;23374;52.758;6.872;2023-07-31T00:13:13;16.50;99.90
37530;DHT22;23374;52.758;6.872;2023-07-31T00:15:33;16.40;99.90
37530;DHT22;23374;52.758;6.872;2023-07-31T00:17:54;16.40;99.90
37530;DHT22;23374;52.758;6.872;2023-07-31T00:20:14;16.40;99.90
37530;DHT22;23374;52.758;6.872;2023-07-31T00:22:38;16.40;99.90
37530;DHT22;23374;52.758;6.872;2023-07-31T00:24:59;16.30;99.90
37530;DHT22;23374;52.758;6.872;2023-07-31T00:27:19;16.30;99.90
37530;DHT22;23374;52.758;6.872;2023-07-31T00:29:40;16.30;99.90
37530;DHT22;23374;52.758;6.872;2023-07-31T00:32:00;16.30;99.90
37530;DHT22;23374;52.758;6.872;2023-07-31T00:34:21;16.20;99.90
37530;DHT22;23374;52.758;6.872;2023-07-31T00:36:41;16.20;99.90
37530;DHT22;23374;52.758;6.872;2023-07-31T00:39:01;16.20;99.90
37530;DHT22;23374;52.758;6.872;2023-07-31T00:41:22;16.20;99.90
37530;DHT22;23374;52.758;6.872;2023-07-31T00:43:43;16.20;99.90
37530;DHT22;23374;52.758;6.872;2023-07-31T00:46:03;16.20;99.90
37530;DHT22;23374;52.758;6.872;2023-07-31T00:48:24;16.10;99.90
37530;DHT22;23374;52.758;6.872;2023-07-31T00:50:44;16.10;99.90
37530;DHT22;23374;52.758;6.872;2023-07-31T00:53:05;16.10;99.90
37530;DHT22;23374;52.758;6.872;2023-07-31T00:55:26;16.20;99.90
37530;DHT22;23374;52.758;6.872;2023-07-31T00:57:47;16.10;99.90
37530;DHT22;23374;52.758;6.872;2023-07-31T01:00:10;16.10;99.90
37530;DHT22;23374;52.758;6.872;2023-07-31T01:02:30;16.10;99.90
37530;DHT22;23374;52.758;6.872;2023-07-31T01:04:52;16.10;99.90
37530;DHT22;23374;52.758;6.872;2023-07-31T01:08:58;16.10;99.90
37530;DHT22;23374;52.758;6.872;2023-07-31T01:12:01;16.10;99.90
37530;DHT22;23374;52.758;6.872;2023-07-31T01:14:22;16.10;99.90
37530;DHT22;23374;52.758;6.872;2023-07-31T01:16:43;16.00;99.90
37530;DHT22;23374;52.758;6.872;2023-07-31T01:19:06;16.00;99.90
37530;DHT22;23374;52.758;6.872;2023-07-31T01:28:07;15.90;99.90
37530;DHT22;23374;52.758;6.872;2023-07-31T01:30:33;15.80;99.90
37530;DHT22;23374;52.758;6.872;2023-07-31T01:32:57;15.80;99.90
37530;DHT22;23374;52.758;6.872;2023-07-31T01:35:18;15.70;99.90
37530;DHT22;23374;52.758;6.872;2023-07-31T01:37:39;15.70;99.90
37530;DHT22;23374;52.758;6.872;2023-07-31T01:40:00;15.80;99.90
37530;DHT22;23374;52.758;6.872;2023-07-31T01:42:20;15.70;99.90
37530;DHT22;23374;52.758;6.872;2023-07-31T01:44:40;15.70;99.90
37530;DHT22;23374;52.758;6.872;2023-07-31T01:47:01;15.80;99.90
37530;DHT22;23374;52.758;6.872;2023-07-31T01:49:21;15.80;99.90
37530;DHT22;23374;52.758;6.872;2023-07-31T01:51:42;15.70;99.90
37530;DHT22;23374;52.758;6.872;2023-07-31T01:54:03;15.70;99.90
37530;DHT22;23374;52.758;6.872;2023-07-31T01:56:23;15.70;99.90
37530;DHT22;23374;52.758;6.872;2023-07-31T01:58:45;15.70;99.90
37530;DHT22;23374;52.758;6.872;2023-07-31T02:01:05;15.70;99.90
37530;DHT22;23374;52.758;6.872;2023-07-31T02:03:25;15.70;99.90
37530;DHT22;23374;52.758;6.872;2023-07-31T02:05:47;15.70;99.90
37530;DHT22;23374;52.758;6.872;2023-07-31T02:08:08;15.70;99.90
37530;DHT22;23374;52.758;6.872;2023-07-31T02:10:28;15.70;99.90
37530;DHT22;23374;52.758;6.872;2023-07-31T02:12:49;15.70;99.90
37530;DHT22;23374;52.758;6.872;2023-07-31T02:15:10;15.70;99.90
37530;DHT22;23374;52.758;6.872;2023-07-31T02:17:30;15.70;99.90
37530;DHT22;23374;52.758;6.872;2023-07-31T02:19:52;15.80;99.90
37530;DHT22;23374;52.758;6.872;2023-07-31T02:22:13;15.70;99.90
37530;DHT22;23374;52.758;6.872;2023-07-31T02:24:34;15.80;99.90
37530;DHT22;23374;52.758;6.872;2023-07-31T02:26:55;15.80;99.90
37530;DHT22;23374;52.758;6.872;2023-07-31T02:29:16;15.80;99.90
37530;DHT22;23374;52.758;6.872;2023-07-31T02:31:36;15.80;99.90
37530;DHT22;23374;52.758;6.872;2023-07-31T02:33:56;15.80;99.90
37530;DHT22;23374;52.758;6.872;2023-07-31T02:36:16;15.80;99.90
37530;DHT22;23374;52.758;6.872;2023-07-31T02:38:36;15.80;99.90
37530;DHT22;23374;52.758;6.872;2023-07-31T02:40:57;15.80;99.90
37530;DHT22;23374;52.758;6.872;2023-07-31T02:43:17;15.80;99.90
37530;DHT22;23374;52.758;6.872;2023-07-31T02:45:38;15.80;99.90
37530;DHT22;23374;52.758;6.872;2023-07-31T02:48:00;15.80;99.90
37530;DHT22;23374;52.758;6.872;2023-07-31T02:50:20;15.80;99.90
37530;DHT22;23374;52.758;6.872;2023-07-31T02:52:41;15.90;99.90
37530;DHT22;23374;52.758;6.872;2023-07-31T02:55:01;15.90;99.90
37530;DHT22;23374;52.758;6.872;2023-07-31T02:57:22;15.90;99.90
37530;DHT22;23374;52.758;6.872;2023-07-31T02:59:42;15.90;99.90
37530;DHT22;23374;52.758;6.872;2023-07-31T03:02:04;15.90;99.90
37530;DHT22;23374;52.758;6.872;2023-07-31T03:04:24;15.90;99.90
37530;DHT22;23374;52.758;6.872;2023-07-31T03:06:45;16.00;99.90
37530;DHT22;23374;52.758;6.872;2023-07-31T03:09:07;16.00;99.90
37530;DHT22;23374;52.758;6.872;2023-07-31T03:11:27;16.00;99.90
37530;DHT22;23374;52.758;6.872;2023-07-31T03:13:48;16.00;99.90
37530;DHT22;23374;52.758;6.872;2023-07-31T03:16:08;16.00;99.90
37530;DHT22;23374;52.758;6.872;2023-07-31T03:18:29;16.00;99.90
37530;DHT22;23374;52.758;6.872;2023-07-31T03:20:49;16.00;99.90
37530;DHT22;23374;52.758;6.872;2023-07-31T03:23:10;16.00;99.90
37530;DHT22;23374;52.758;6.872;2023-07-31T03:25:30;16.00;99.90
37530;DHT22;23374;52.758;6.872;2023-07-31T03:27:51;16.10;99.90
37530;DHT22;23374;52.758;6.872;2023-07-31T03:30:12;16.10;99.90
37530;DHT22;23374;52.758;6.872;2023-07-31T03:32:32;16.10;99.90
37530;DHT22;23374;52.758;6.872;2023-07-31T03:34:54;16.10;99.90
37530;DHT22;23374;52.758;6.872;2023-07-31T03:37:14;16.10;99.90
37530;DHT22;23374;52.758;6.872;2023-07-31T03:39:35;16.10;99.90
37530;DHT22;23374;52.758;6.872;2023-07-31T03:41:56;16.10;99.90
37530;DHT22;23374;52.758;6.872;2023-07-31T03:44:17;16.10;99.90
37530;DHT22;23374;52.758;6.872;2023-07-31T03:46:37;16.10;99.90
37530;DHT22;23374;52.758;6.872;2023-07-31T03:48:58;16.10;99.90
37530;DHT22;23374;52.758;6.872;2023-07-31T03:51:19;16.10;99.90
37530;DHT22;23374;52.758;6.872;2023-07-31T03:53:40;16.10;99.90
37530;DHT22;23374;52.758;6.872;2023-07-31T03:56:00;16.10;99.90
37530;DHT22;23374;52.758;6.872;2023-07-31T03:58:21;16.10;99.90
37530;DHT22;23374;52.758;6.872;2023-07-31T04:00:42;16.10;99.90
37530;DHT22;23374;52.758;6.872;2023-07-31T04:03:02;16.10;99.90
37530;DHT22;23374;52.758;6.872;2023-07-31T04:05:23;16.10;99.90
37530;DHT22;23374;52.758;6.872;2023-07-31T04:07:43;16.20;99.90
37530;DHT22;23374;52.758;6.872;2023-07-31T04:10:04;16.10;99.90
37530;DHT22;23374;52.758;6.872;2023-07-31T04:12:24;16.20;99.90
37530;DHT22;23374;52.758;6.872;2023-07-31T04:14:45;16.20;99.90
37530;DHT22;23374;52.758;6.872;2023-07-31T04:17:06;16.20;99.90
37530;DHT22;23374;52.758;6.872;2023-07-31T04:19:27;16.20;99.90
37530;DHT22;23374;52.758;6.872;2023-07-31T04:21:47;16.20;99.90
37530;DHT22;23374;52.758;6.872;2023-07-31T04:24:07;16.20;99.90
37530;DHT22;23374;52.758;6.872;2023-07-31T04:26:28;16.20;99.90
37530;DHT22;23374;52.758;6.872;2023-07-31T04:28:48;16.20;99.90
37530;DHT22;23374;52.758;6.872;2023-07-31T04:31:08;16.30;99.90
37530;DHT22;23374;52.758;6.872;2023-07-31T04:33:29;16.20;99.90
37530;DHT22;23374;52.758;6.872;2023-07-31T04:35:53;16.30;99.90
37530;DHT22;23374;52.758;6.872;2023-07-31T04:38:13;16.30;99.90
37530;DHT22;23374;52.758;6.872;2023-07-31T04:40:33;16.20;99.90
37530;DHT22;23374;52.758;6.872;2023-07-31T04:42:54;16.20;99.90
37530;DHT22;23374;52.758;6.872;2023-07-31T04:45:15;16.20;99.90
37530;DHT22;23374;52.758;6.872;2023-07-31T04:47:35;16.20;99.90
37530;DHT22;23374;52.758;6.872;2023-07-31T04:49:56;16.30;99.90
37530;DHT22;23374;52.758;6.872;2023-07-31T04:52:16;16.20;99.90
37530;DHT22;23374;52.758;6.872;2023-07-31T04:54:36;16.20;99.90
37530;DHT22;23374;52.758;6.872;2023-07-31T04:56:56;16.30;99.90
37530;DHT22;23374;52.758;6.872;2023-07-31T04:59:17;16.30;99.90
37530;DHT22;23374;52.758;6.872;2023-07-31T05:01:38;16.20;99.90
37530;DHT22;23374;52.758;6.872;2023-07-31T05:03:59;16.20;99.90
37530;DHT22;23374;52.758;6.872;2023-07-31T05:06:19;16.30;99.90
37530;DHT22;23374;52.758;6.872;2023-07-31T05:08:41;16.30;99.90
37530;DHT22;23374;52.758;6.872;2023-07-31T05:11:02;16.30;99.90
37530;DHT22;23374;52.758;6.872;2023-07-31T05:13:22;16.40;99.90
37530;DHT22;23374;52.758;6.872;2023-07-31T05:15:43;16.40;99.90
37530;DHT22;23374;52.758;6.872;2023-07-31T05:18:03;16.40;99.90
37530;DHT22;23374;52.758;6.872;2023-07-31T05:20:24;16.40;99.90
37530;DHT22;23374;52.758;6.872;2023-07-31T05:22:44;16.50;99.90
37530;DHT22;23374;52.758;6.872;2023-07-31T05:25:05;16.50;99.90
37530;DHT22;23374;52.758;6.872;2023-07-31T05:27:25;16.50;99.90
37530;DHT22;23374;52.758;6.872;2023-07-31T05:29:46;16.50;99.90
37530;DHT22;23374;52.758;6.872;2023-07-31T05:32:07;16.50;99.90
37530;DHT22;23374;52.758;6.872;2023-07-31T05:34:27;16.60;99.90
37530;DHT22;23374;52.758;6.872;2023-07-31T05:36:48;16.50;99.90
37530;DHT22;23374;52.758;6.872;2023-07-31T05:39:08;16.60;99.90
37530;DHT22;23374;52.758;6.872;2023-07-31T05:41:30;16.60;99.90
37530;DHT22;23374;52.758;6.872;2023-07-31T05:43:50;16.60;99.90
37530;DHT22;23374;52.758;6.872;2023-07-31T05:46:11;16.60;99.90
37530;DHT22;23374;52.758;6.872;2023-07-31T05:48:32;16.60;99.90
37530;DHT22;23374;52.758;6.872;2023-07-31T05:50:54;16.60;99.90
37530;DHT22;23374;52.758;6.872;2023-07-31T05:53:14;16.60;99.90
37530;DHT22;23374;52.758;6.872;2023-07-31T05:55:35;16.60;99.90
37530;DHT22;23374;52.758;6.872;2023-07-31T05:57:56;16.60;99.90
37530;DHT22;23374;52.758;6.872;2023-07-31T06:00:16;16.70;99.90
37530;DHT22;23374;52.758;6.872;2023-07-31T06:02:36;16.60;99.90
37530;DHT22;23374;52.758;6.872;2023-07-31T06:04:57;16.70;99.90
37530;DHT22;23374;52.758;6.872;2023-07-31T06:07:17;16.70;99.90
37530;DHT22;23374;52.758;6.872;2023-07-31T06:09:39;16.70;99.90
37530;DHT22;23374;52.758;6.872;2023-07-31T06:12:00;16.70;99.90
37530;DHT22;23374;52.758;6.872;2023-07-31T06:14:20;16.70;99.90
37530;DHT22;23374;52.758;6.872;2023-07-31T06:16:41;16.70;99.90
37530;DHT22;23374;52.758;6.872;2023-07-31T06:19:01;16.70;99.90
37530;DHT22;23374;52.758;6.872;2023-07-31T06:21:22;16.70;99.90
37530;DHT22;23374;52.758;6.872;2023-07-31T06:23:42;16.70;99.90
37530;DHT22;23374;52.758;6.872;2023-07-31T06:26:03;16.70;99.90
37530;DHT22;23374;52.758;6.872;2023-07-31T06:28:31;16.70;99.90
37530;DHT22;23374;52.758;6.872;2023-07-31T06:30:52;16.70;99.90
37530;DHT22;23374;52.758;6.872;2023-07-31T06:33:14;16.70;99.90
37530;DHT22;23374;52.758;6.872;2023-07-31T06:35:40;16.70;99.90
37530;DHT22;23374;52.758;6.872;2023-07-31T06:38:03;16.70;99.90
37530;DHT22;23374;52.758;6.872;2023-07-31T06:40:25;16.70;99.90
37530;DHT22;23374;52.758;6.872;2023-07-31T06:42:49;16.70;99.90
37530;DHT22;23374;52.758;6.872;2023-07-31T06:45:10;16.70;99.90
37530;DHT22;23374;52.758;6.872;2023-07-31T06:47:36;16.70;99.90
37530;DHT22;23374;52.758;6.872;2023-07-31T06:49:57;16.70;99.90
37530;DHT22;23374;52.758;6.872;2023-07-31T06:52:17;16.70;99.90
37530;DHT22;23374;52.758;6.872;2023-07-31T06:54:38;16.70;99.90
37530;DHT22;23374;52.758;6.872;2023-07-31T06:56:58;16.70;99.90
37530;DHT22;23374;52.758;6.872;2023-07-31T06:59:25;16.70;99.90
37530;DHT22;23374;52.758;6.872;2023-07-31T07:01:46;16.70;99.90
37530;DHT22;23374;52.758;6.872;2023-07-31T07:04:07;16.70;99.90
37530;DHT22;23374;52.758;6.872;2023-07-31T07:06:30;16.80;99.90
37530;DHT22;23374;52.758;6.872;2023-07-31T07:08:51;16.70;99.90
37530;DHT22;23374;52.758;6.872;2023-07-31T07:11:13;16.70;99.90
37530;DHT22;23374;52.758;6.872;2023-07-31T07:13:35;16.70;99.90
37530;DHT22;23374;52.758;6.872;2023-07-31T07:15:56;16.70;99.90
37530;DHT22;23374;52.758;6.872;2023-07-31T07:18:16;16.60;99.90
37530;DHT22;23374;52.758;6.872;2023-07-31T07:20:37;16.60;99.90
37530;DHT22;23374;52.758;6.872;2023-07-31T07:22:58;16.60;99.90
37530;DHT22;23374;52.758;6.872;2023-07-31T07:25:19;16.60;99.90
37530;DHT22;23374;52.758;6.872;2023-07-31T07:27:40;16.60;99.90
37530;DHT22;23374;52.758;6.872;2023-07-31T07:30:01;16.50;99.90
37530;DHT22;23374;52.758;6.872;2023-07-31T07:32:21;16.50;99.90
37530;DHT22;23374;52.758;6.872;2023-07-31T07:34:42;16.50;99.90
37530;DHT22;23374;52.758;6.872;2023-07-31T07:37:02;16.50;99.90
37530;DHT22;23374;52.758;6.872;2023-07-31T07:39:23;16.60;99.90
37530;DHT22;23374;52.758;6.872;2023-07-31T07:41:43;16.50;99.90
37530;DHT22;23374;52.758;6.872;2023-07-31T07:44:04;16.60;99.90
37530;DHT22;23374;52.758;6.872;2023-07-31T07:46:24;16.60;99.90
37530;DHT22;23374;52.758;6.872;2023-07-31T07:48:50;16.60;99.90
37530;DHT22;23374;52.758;6.872;2023-07-31T07:51:14;16.60;99.90
37530;DHT22;23374;52.758;6.872;2023-07-31T07:53:35;16.60;99.90
37530;DHT22;23374;52.758;6.872;2023-07-31T07:55:55;16.60;99.90
37530;DHT22;23374;52.758;6.872;2023-07-31T07:58:17;16.60;99.90
37530;DHT22;23374;52.758;6.872;2023-07-31T08:00:42;16.70;99.90
37530;DHT22;23374;52.758;6.872;2023-07-31T08:03:08;16.70;99.90
37530;DHT22;23374;52.758;6.872;2023-07-31T08:05:30;16.70;99.90
37530;DHT22;23374;52.758;6.872;2023-07-31T08:07:54;16.70;99.90
37530;DHT22;23374;52.758;6.872;2023-07-31T08:10:14;16.70;99.90
37530;DHT22;23374;52.758;6.872;2023-07-31T08:12:35;16.70;99.90
37530;DHT22;23374;52.758;6.872;2023-07-31T08:14:55;16.80;99.90
37530;DHT22;23374;52.758;6.872;2023-07-31T08:17:16;16.80;99.90
37530;DHT22;23374;52.758;6.872;2023-07-31T08:19:36;16.80;99.90
37530;DHT22;23374;52.758;6.872;2023-07-31T08:21:57;16.80;99.90
37530;DHT22;23374;52.758;6.872;2023-07-31T08:24:25;16.80;99.90
37530;DHT22;23374;52.758;6.872;2023-07-31T08:26:47;16.80;99.90
37530;DHT22;23374;52.758;6.872;2023-07-31T08:29:08;16.80;99.90
37530;DHT22;23374;52.758;6.872;2023-07-31T08:31:28;16.80;99.90
37530;DHT22;23374;52.758;6.872;2023-07-31T08:33:50;16.80;99.90
37530;DHT22;23374;52.758;6.872;2023-07-31T08:36:10;16.90;99.90
37530;DHT22;23374;52.758;6.872;2023-07-31T08:38:30;16.90;99.90
37530;DHT22;23374;52.758;6.872;2023-07-31T08:40:51;16.90;99.90
37530;DHT22;23374;52.758;6.872;2023-07-31T08:43:12;16.90;99.90
37530;DHT22;23374;52.758;6.872;2023-07-31T08:45:33;16.90;99.90
37530;DHT22;23374;52.758;6.872;2023-07-31T08:47:55;16.90;99.90
37530;DHT22;23374;52.758;6.872;2023-07-31T08:50:19;17.00;99.90
37530;DHT22;23374;52.758;6.872;2023-07-31T08:52:40;17.00;99.90
37530;DHT22;23374;52.758;6.872;2023-07-31T08:55:01;17.10;99.90
37530;DHT22;23374;52.758;6.872;2023-07-31T08:57:21;17.10;99.90
37530;DHT22;23374;52.758;6.872;2023-07-31T08:59:45;17.20;99.90
37530;DHT22;23374;52.758;6.872;2023-07-31T09:02:08;17.20;99.90
37530;DHT22;23374;52.758;6.872;2023-07-31T09:04:30;17.30;99.90
37530;DHT22;23374;52.758;6.872;2023-07-31T09:06:57;17.30;99.90
37530;DHT22;23374;52.758;6.872;2023-07-31T09:09:20;17.30;99.90
37530;DHT22;23374;52.758;6.872;2023-07-31T09:11:40;17.30;99.90
37530;DHT22;23374;52.758;6.872;2023-07-31T09:14:01;17.40;99.90
37530;DHT22;23374;52.758;6.872;2023-07-31T09:16:29;17.40;99.90
37530;DHT22;23374;52.758;6.872;2023-07-31T09:18:54;17.40;99.90
37530;DHT22;23374;52.758;6.872;2023-07-31T09:21:16;17.40;99.90
37530;DHT22;23374;52.758;6.872;2023-07-31T09:23:45;17.40;99.90
37530;DHT22;23374;52.758;6.872;2023-07-31T09:26:06;17.40;99.90
37530;DHT22;23374;52.758;6.872;2023-07-31T09:28:31;17.50;99.90
37530;DHT22;23374;52.758;6.872;2023-07-31T09:30:52;17.50;99.90
37530;DHT22;23374;52.758;6.872;2023-07-31T09:33:12;17.50;99.90
37530;DHT22;23374;52.758;6.872;2023-07-31T09:35:34;17.50;99.90
37530;DHT22;23374;52.758;6.872;2023-07-31T09:38:20;17.50;99.90
37530;DHT22;23374;52.758;6.872;2023-07-31T09:40:47;17.50;99.90
37530;DHT22;23374;52.758;6.872;2023-07-31T09:43:11;17.60;99.90
37530;DHT22;23374;52.758;6.872;2023-07-31T09:45:41;17.60;99.90
37530;DHT22;23374;52.758;6.872;2023-07-31T09:48:03;17.60;99.90
37530;DHT22;23374;52.758;6.872;2023-07-31T09:50:25;17.60;99.90
37530;DHT22;23374;52.758;6.872;2023-07-31T09:52:45;17.70;99.90
37530;DHT22;23374;52.758;6.872;2023-07-31T09:55:08;17.70;99.90
37530;DHT22;23374;52.758;6.872;2023-07-31T09:57:29;17.70;99.90
37530;DHT22;23374;52.758;6.872;2023-07-31T09:59:52;17.70;99.90
37530;DHT22;23374;52.758;6.872;2023-07-31T10:02:20;17.70;99.90
37530;DHT22;23374;52.758;6.872;2023-07-31T10:04:42;17.70;99.90
37530;DHT22;23374;52.758;6.872;2023-07-31T10:07:04;17.70;99.90
37530;DHT22;23374;52.758;6.872;2023-07-31T10:09:26;17.80;99.90
37530;DHT22;23374;52.758;6.872;2023-07-31T10:12:00;17.80;99.90
37530;DHT22;23374;52.758;6.872;2023-07-31T10:14:21;17.80;99.90
37530;DHT22;23374;52.758;6.872;2023-07-31T10:16:44;17.90;99.90
37530;DHT22;23374;52.758;6.872;2023-07-31T10:19:05;17.90;99.90
37530;DHT22;23374;52.758;6.872;2023-07-31T10:21:28;17.90;99.90
37530;DHT22;23374;52.758;6.872;2023-07-31T10:23:50;18.00;99.90
37530;DHT22;23374;52.758;6.872;2023-07-31T10:26:13;18.00;99.90
37530;DHT22;23374;52.758;6.872;2023-07-31T10:28:36;18.10;99.90
37530;DHT22;23374;52.758;6.872;2023-07-31T10:30:58;18.10;99.90
37530;DHT22;23374;52.758;6.872;2023-07-31T10:33:19;18.10;99.90
37530;DHT22;23374;52.758;6.872;2023-07-31T10:35:40;18.20;99.90
37530;DHT22;23374;52.758;6.872;2023-07-31T10:38:11;18.20;99.90
37530;DHT22;23374;52.758;6.872;2023-07-31T10:40:32;18.20;99.90
37530;DHT22;23374;52.758;6.872;2023-07-31T10:42:57;18.30;99.90
37530;DHT22;23374;52.758;6.872;2023-07-31T10:45:39;18.30;99.90
37530;DHT22;23374;52.758;6.872;2023-07-31T10:48:12;18.30;99.90
37530;DHT22;23374;52.758;6.872;2023-07-31T10:50:38;18.30;99.90
37530;DHT22;23374;52.758;6.872;2023-07-31T10:53:00;18.30;99.90
37530;DHT22;23374;52.758;6.872;2023-07-31T10:55:33;18.40;99.90
37530;DHT22;23374;52.758;6.872;2023-07-31T10:58:10;18.40;99.90
37530;DHT22;23374;52.758;6.872;2023-07-31T11:00:30;18.50;99.90
37530;DHT22;23374;52.758;6.872;2023-07-31T11:03:48;18.60;99.90
37530;DHT22;23374;52.758;6.872;2023-07-31T11:06:16;18.60;99.90
37530;DHT22;23374;52.758;6.872;2023-07-31T11:08:43;18.60;99.90
37530;DHT22;23374;52.758;6.872;2023-07-31T11:11:10;18.70;99.90
37530;DHT22;23374;52.758;6.872;2023-07-31T11:13:34;18.70;99.90
37530;DHT22;23374;52.758;6.872;2023-07-31T11:16:00;18.80;99.90
37530;DHT22;23374;52.758;6.872;2023-07-31T11:18:21;18.90;99.90
37530;DHT22;23374;52.758;6.872;2023-07-31T11:20:41;19.00;99.90
37530;DHT22;23374;52.758;6.872;2023-07-31T11:23:08;19.00;99.90
37530;DHT22;23374;52.758;6.872;2023-07-31T11:25:31;19.00;99.90
37530;DHT22;23374;52.758;6.872;2023-07-31T11:27:51;19.00;99.90
37530;DHT22;23374;52.758;6.872;2023-07-31T11:30:13;19.00;99.90
37530;DHT22;23374;52.758;6.872;2023-07-31T11:32:36;19.00;99.90
37530;DHT22;23374;52.758;6.872;2023-07-31T11:34:58;19.00;99.90
37530;DHT22;23374;52.758;6.872;2023-07-31T11:37:19;18.90;99.90
37530;DHT22;23374;52.758;6.872;2023-07-31T11:39:40;18.90;99.90
37530;DHT22;23374;52.758;6.872;2023-07-31T11:42:02;18.90;99.90
37530;DHT22;23374;52.758;6.872;2023-07-31T11:44:22;19.00;99.90
37530;DHT22;23374;52.758;6.872;2023-07-31T11:46:43;19.00;99.90
37530;DHT22;23374;52.758;6.872;2023-07-31T11:49:04;19.00;99.90
37530;DHT22;23374;52.758;6.872;2023-07-31T11:51:26;19.00;99.90
37530;DHT22;23374;52.758;6.872;2023-07-31T11:54:05;19.00;99.90
37530;DHT22;23374;52.758;6.872;2023-07-31T11:56:27;19.00;99.90
37530;DHT22;23374;52.758;6.872;2023-07-31T11:58:59;19.00;99.90
37530;DHT22;23374;52.758;6.872;2023-07-31T12:01:22;19.00;99.90
37530;DHT22;23374;52.758;6.872;2023-07-31T12:03:45;18.90;99.90
37530;DHT22;23374;52.758;6.872;2023-07-31T12:06:06;18.90;99.90
37530;DHT22;23374;52.758;6.872;2023-07-31T12:08:27;18.90;99.90
37530;DHT22;23374;52.758;6.872;2023-07-31T12:10:53;18.90;99.90
37530;DHT22;23374;52.758;6.872;2023-07-31T12:13:26;18.90;99.90
37530;DHT22;23374;52.758;6.872;2023-07-31T12:15:48;18.80;99.90
37530;DHT22;23374;52.758;6.872;2023-07-31T12:18:15;18.80;99.90
37530;DHT22;23374;52.758;6.872;2023-07-31T12:20:39;18.80;99.90
37530;DHT22;23374;52.758;6.872;2023-07-31T12:23:00;18.80;99.90
37530;DHT22;23374;52.758;6.872;2023-07-31T12:25:20;18.80;99.90
37530;DHT22;23374;52.758;6.872;2023-07-31T12:27:45;18.90;99.90
37530;DHT22;23374;52.758;6.872;2023-07-31T12:30:35;18.80;99.90
37530;DHT22;23374;52.758;6.872;2023-07-31T12:32:55;18.80;99.90
37530;DHT22;23374;52.758;6.872;2023-07-31T12:35:15;18.80;99.90
37530;DHT22;23374;52.758;6.872;2023-07-31T12:37:36;18.80;99.90
37530;DHT22;23374;52.758;6.872;2023-07-31T12:39:56;18.80;99.90
37530;DHT22;23374;52.758;6.872;2023-07-31T12:42:21;18.80;99.90
37530;DHT22;23374;52.758;6.872;2023-07-31T12:44:42;18.70;99.90
37530;DHT22;23374;52.758;6.872;2023-07-31T12:47:03;18.70;99.90
37530;DHT22;23374;52.758;6.872;2023-07-31T12:49:24;18.70;99.90
37530;DHT22;23374;52.758;6.872;2023-07-31T12:51:45;18.70;99.90
37530;DHT22;23374;52.758;6.872;2023-07-31T12:54:06;18.70;99.90
37530;DHT22;23374;52.758;6.872;2023-07-31T12:56:27;18.70;99.90
37530;DHT22;23374;52.758;6.872;2023-07-31T12:58:48;18.80;99.90
37530;DHT22;23374;52.758;6.872;2023-07-31T13:01:08;18.70;99.90
37530;DHT22;23374;52.758;6.872;2023-07-31T13:03:29;18.70;99.90
37530;DHT22;23374;52.758;6.872;2023-07-31T13:05:50;18.70;99.90
37530;DHT22;23374;52.758;6.872;2023-07-31T13:08:10;18.80;99.90
37530;DHT22;23374;52.758;6.872;2023-07-31T13:10:32;18.80;99.90
37530;DHT22;23374;52.758;6.872;2023-07-31T13:12:53;18.90;99.90
37530;DHT22;23374;52.758;6.872;2023-07-31T13:15:14;19.00;99.90
37530;DHT22;23374;52.758;6.872;2023-07-31T13:17:36;19.00;99.90
37530;DHT22;23374;52.758;6.872;2023-07-31T13:19:57;19.00;99.90
37530;DHT22;23374;52.758;6.872;2023-07-31T13:22:17;19.00;99.90
37530;DHT22;23374;52.758;6.872;2023-07-31T13:24:38;19.00;99.90
37530;DHT22;23374;52.758;6.872;2023-07-31T13:26:58;19.00;99.90
37530;DHT22;23374;52.758;6.872;2023-07-31T13:29:19;19.00;99.90
37530;DHT22;23374;52.758;6.872;2023-07-31T13:31:42;19.00;99.90
37530;DHT22;23374;52.758;6.872;2023-07-31T13:34:02;19.10;99.90
37530;DHT22;23374;52.758;6.872;2023-07-31T13:36:23;19.10;99.90
37530;DHT22;23374;52.758;6.872;2023-07-31T13:38:44;19.20;99.90
37530;DHT22;23374;52.758;6.872;2023-07-31T13:41:04;19.20;99.90
37530;DHT22;23374;52.758;6.872;2023-07-31T13:43:25;19.20;99.90
37530;DHT22;23374;52.758;6.872;2023-07-31T13:45:46;19.20;99.90
37530;DHT22;23374;52.758;6.872;2023-07-31T13:48:06;19.10;99.90
37530;DHT22;23374;52.758;6.872;2023-07-31T13:50:27;19.10;99.90
37530;DHT22;23374;52.758;6.872;2023-07-31T13:52:47;19.10;99.90
37530;DHT22;23374;52.758;6.872;2023-07-31T13:55:08;19.00;99.90
37530;DHT22;23374;52.758;6.872;2023-07-31T13:57:28;19.00;99.90
37530;DHT22;23374;52.758;6.872;2023-07-31T13:59:49;19.00;99.90
37530;DHT22;23374;52.758;6.872;2023-07-31T14:02:09;18.90;99.90
37530;DHT22;23374;52.758;6.872;2023-07-31T14:04:29;18.90;99.90
37530;DHT22;23374;52.758;6.872;2023-07-31T14:06:50;18.90;99.90
37530;DHT22;23374;52.758;6.872;2023-07-31T14:09:10;18.90;99.90
37530;DHT22;23374;52.758;6.872;2023-07-31T14:11:32;18.90;99.90
37530;DHT22;23374;52.758;6.872;2023-07-31T14:13:53;18.90;99.90
37530;DHT22;23374;52.758;6.872;2023-07-31T14:16:13;18.90;99.90
37530;DHT22;23374;52.758;6.872;2023-07-31T14:18:34;19.00;99.90
37530;DHT22;23374;52.758;6.872;2023-07-31T14:20:55;19.00;99.90
37530;DHT22;23374;52.758;6.872;2023-07-31T14:23:15;19.10;99.90
37530;DHT22;23374;52.758;6.872;2023-07-31T14:25:36;19.10;99.90
37530;DHT22;23374;52.758;6.872;2023-07-31T14:27:57;19.20;99.90
37530;DHT22;23374;52.758;6.872;2023-07-31T14:30:17;19.20;99.90
37530;DHT22;23374;52.758;6.872;2023-07-31T14:32:38;19.20;99.90
37530;DHT22;23374;52.758;6.872;2023-07-31T14:34:58;19.30;99.90
37530;DHT22;23374;52.758;6.872;2023-07-31T14:37:19;19.30;99.90
37530;DHT22;23374;52.758;6.872;2023-07-31T14:39:39;19.40;99.90
37530;DHT22;23374;52.758;6.872;2023-07-31T14:41:59;19.40;99.90
37530;DHT22;23374;52.758;6.872;2023-07-31T14:44:20;19.50;99.90
37530;DHT22;23374;52.758;6.872;2023-07-31T14:46:40;19.70;99.90
37530;DHT22;23374;52.758;6.872;2023-07-31T14:49:00;19.70;99.90
37530;DHT22;23374;52.758;6.872;2023-07-31T14:51:21;19.80;99.90
37530;DHT22;23374;52.758;6.872;2023-07-31T14:53:42;19.80;99.90
37530;DHT22;23374;52.758;6.872;2023-07-31T14:56:02;19.80;99.90
37530;DHT22;23374;52.758;6.872;2023-07-31T14:58:23;19.90;99.90
37530;DHT22;23374;52.758;6.872;2023-07-31T15:00:44;19.90;99.90
37530;DHT22;23374;52.758;6.872;2023-07-31T15:03:11;19.80;99.90
37530;DHT22;23374;52.758;6.872;2023-07-31T15:05:32;19.80;99.90